Terminal Aerodrome Forecast
Issued by NWS Blacksburg, VA

Current Version | Previous Version | Text Only | Print | Product List | Glossary Off
Versions: 1 2 3 4 5 6 7 8 9 10 11 12 13 14 15 16 17 18 19 20 21 22 23 24 25 26 27 28 29 30 31 32 33 34 35 36 37 38

000
FTUS41 KRNK 031737
TAFBLF
TAF
KBLF 031737Z 0318/0418 30008KT P6SM VCSH SCT010 BKN015 OVC025
      TEMPO 0318/0320 5SM -SHRA BKN010 OVC015
     FM040200 30005KT P6SM SCT010 OVC018
     FM041100 29007KT P6SM VCSH OVC010
     FM041500 29007KT P6SM SCT010 BKN025=

USA.gov is the U.S. government's official web portal to all federal, state and local government web resources and services.